Time,TemperatureF,DewpointF,PressureIn,WindDirection,WindDirectionDegrees,WindSpeedMPH,WindSpeedGustMPH,Humidity,HourlyPrecipIn,Conditions,Clouds,dailyrainin,SoftwareType,DateUTC
2015-05-25 00:02:00,67.1,45.1,30.14,SSW,213,0.0,2.0,45,0.00,,---,0.00,VWS V15.00,2015-05-25 04:02:00,
2015-05-25 00:17:00,67.0,45.6,30.14,SW,215,0.0,1.0,46,0.00,,---,0.00,VWS V15.00,2015-05-25 04:17:00,
2015-05-25 00:32:00,66.8,44.8,30.15,SW,216,0.0,1.0,45,0.00,,---,0.00,VWS V15.00,2015-05-25 04:32:00,
2015-05-25 00:47:00,66.4,45.6,30.15,WSW,238,0.0,2.0,47,0.00,,---,0.00,VWS V15.00,2015-05-25 04:47:00,
2015-05-25 01:02:00,66.1,45.9,30.14,SSE,159,0.0,2.0,48,0.00,,---,0.00,VWS V15.00,2015-05-25 05:02:00,
2015-05-25 01:17:00,65.7,45.5,30.14,SSE,159,0.0,2.0,48,0.00,,---,0.00,VWS V15.00,2015-05-25 05:17:00,
2015-05-25 01:32:00,64.6,46.6,30.15,SSE,159,0.0,2.0,52,0.00,,---,0.00,VWS V15.00,2015-05-25 05:32:00,
2015-05-25 01:47:00,62.7,46.8,30.15,SSE,159,0.0,1.0,56,0.00,,---,0.00,VWS V15.00,2015-05-25 05:47:00,
2015-05-25 02:17:00,61.2,46.8,30.15,SSE,159,0.0,1.0,59,0.00,,---,0.00,VWS V15.00,2015-05-25 06:17:00,
2015-05-25 02:32:00,60.5,46.6,30.16,SSE,159,0.0,1.0,60,0.00,,---,0.00,VWS V15.00,2015-05-25 06:32:00,
2015-05-25 02:47:00,59.9,46.4,30.15,SSE,159,0.0,1.0,61,0.00,,---,0.00,VWS V15.00,2015-05-25 06:47:00,
2015-05-25 03:02:00,59.3,47.1,30.15,SSE,164,0.0,1.0,64,0.00,,---,0.00,VWS V15.00,2015-05-25 07:02:00,
2015-05-25 03:17:00,58.7,47.4,30.15,SSE,164,1.0,1.0,66,0.00,,---,0.00,VWS V15.00,2015-05-25 07:17:00,
2015-05-25 03:32:00,58.1,47.2,30.15,SSE,164,0.0,1.0,67,0.00,,---,0.00,VWS V15.00,2015-05-25 07:32:00,
2015-05-25 03:47:00,57.7,47.6,30.15,SSE,164,1.0,1.0,69,0.00,,---,0.00,VWS V15.00,2015-05-25 07:47:00,
2015-05-25 04:02:00,57.4,47.3,30.15,SSE,164,0.0,1.0,69,0.00,,---,0.00,VWS V15.00,2015-05-25 08:02:00,
2015-05-25 04:32:00,56.4,46.4,30.15,SSE,164,0.0,1.0,69,0.00,,---,0.00,VWS V15.00,2015-05-25 08:32:00,
2015-05-25 04:48:00,56.0,47.5,30.15,SSE,164,0.0,2.0,73,0.00,,---,0.00,VWS V15.00,2015-05-25 08:48:00,
2015-05-25 05:03:00,55.7,47.5,30.15,SSE,165,1.0,2.0,74,0.00,,---,0.00,VWS V15.00,2015-05-25 09:03:00,
2015-05-25 05:18:00,55.5,47.0,30.15,SSE,165,0.0,2.0,73,0.00,,---,0.00,VWS V15.00,2015-05-25 09:18:00,
2015-05-25 05:33:00,55.6,46.7,30.16,SSE,165,0.0,2.0,72,0.00,,---,0.00,VWS V15.00,2015-05-25 09:33:00,
2015-05-25 05:48:00,55.8,47.3,30.16,SSE,165,0.0,1.0,73,0.00,,---,0.00,VWS V15.00,2015-05-25 09:48:00,
2015-05-25 06:03:00,55.9,47.7,30.16,SW,216,0.0,2.0,74,0.00,,---,0.00,VWS V15.00,2015-05-25 10:03:00,
2015-05-25 06:18:00,56.0,48.5,30.16,SW,216,0.0,1.0,76,0.00,,---,0.00,VWS V15.00,2015-05-25 10:18:00,
2015-05-25 06:33:00,56.4,49.3,30.16,SW,216,0.0,1.0,77,0.00,,---,0.00,VWS V15.00,2015-05-25 10:33:00,
2015-05-25 06:48:00,56.9,50.1,30.16,SW,216,1.0,1.0,78,0.00,,---,0.00,VWS V15.00,2015-05-25 10:48:00,
2015-05-25 07:03:00,57.8,51.3,30.17,SW,216,0.0,2.0,79,0.00,,---,0.00,VWS V15.00,2015-05-25 11:03:00,
2015-05-25 07:18:00,58.6,52.1,30.17,SW,216,0.0,1.0,79,0.00,,---,0.00,VWS V15.00,2015-05-25 11:18:00,
2015-05-25 07:33:00,59.3,52.8,30.17,SW,216,0.0,1.0,79,0.00,,---,0.00,VWS V15.00,2015-05-25 11:33:00,
2015-05-25 07:48:00,59.9,52.3,30.17,SW,216,0.0,0.0,76,0.00,,---,0.00,VWS V15.00,2015-05-25 11:48:00,
2015-05-25 08:03:00,60.8,53.5,30.17,SW,216,0.0,1.0,77,0.00,,---,0.00,VWS V15.00,2015-05-25 12:03:00,
2015-05-25 08:18:00,61.5,52.4,30.17,SW,216,0.0,1.0,72,0.00,,---,0.00,VWS V15.00,2015-05-25 12:18:00,
2015-05-25 08:33:00,62.1,53.0,30.17,SW,216,0.0,1.0,72,0.00,,---,0.00,VWS V15.00,2015-05-25 12:33:00,
2015-05-25 08:48:00,62.8,54.0,30.17,SW,216,1.0,1.0,73,0.00,,---,0.00,VWS V15.00,2015-05-25 12:48:00,
2015-05-25 09:03:00,64.1,52.5,30.17,NE,42,0.0,4.0,66,0.00,,---,0.00,VWS V15.00,2015-05-25 13:03:00,
2015-05-25 09:18:00,67.4,51.7,30.17,ESE,112,1.0,2.0,57,0.00,,---,0.00,VWS V15.00,2015-05-25 13:18:00,
2015-05-25 09:33:00,69.9,51.0,30.17,ESE,107,0.0,2.0,51,0.00,,---,0.00,VWS V15.00,2015-05-25 13:33:00,
2015-05-25 09:48:00,70.9,51.9,30.17,SSE,166,0.0,1.0,51,0.00,,---,0.00,VWS V15.00,2015-05-25 13:48:00,
2015-05-25 10:03:00,71.4,52.3,30.17,SSE,164,0.0,1.0,51,0.00,,---,0.00,VWS V15.00,2015-05-25 14:03:00,
2015-05-25 10:18:00,72.0,52.4,30.17,SE,130,0.0,2.0,50,0.00,,---,0.00,VWS V15.00,2015-05-25 14:18:00,
2015-05-25 10:33:00,72.6,51.2,30.17,ESE,115,0.0,2.0,47,0.00,,---,0.00,VWS V15.00,2015-05-25 14:33:00,
2015-05-25 10:48:00,72.4,51.6,30.17,NE,44,0.0,2.0,48,0.00,,---,0.00,VWS V15.00,2015-05-25 14:48:00,
2015-05-25 11:03:00,72.2,52.5,30.17,East,94,0.0,2.0,50,0.00,,---,0.00,VWS V15.00,2015-05-25 15:03:00,
2015-05-25 11:18:00,72.0,52.9,30.17,ESE,117,1.0,2.0,51,0.00,,---,0.00,VWS V15.00,2015-05-25 15:18:00,
2015-05-25 11:33:00,72.1,53.5,30.17,ESE,118,0.0,2.0,52,0.00,,---,0.00,VWS V15.00,2015-05-25 15:33:00,